Time;durP1;ratioP1;P1;durP2;ratioP2;P2;SDS_P1;SDS_P2;PMS_P1;PMS_P2;Temp;Humidity;BMP_temperature;BMP_pressure;BME280_temperature;BME280_humidity;BME280_pressure;Samples;Min_cycle;Max_cycle;Signal;HPM_P1;HPM_P2
2021/08/31 00:01:09;;;;;;;20.52;15.80;;;22.10;88.20;;;;;;5014570;28;20077;-87
2021/08/31 00:03:35;;;;;;;19.13;15.23;;;22.00;88.20;;;;;;5014267;28;20630;-87
2021/08/31 00:06:01;;;;;;;23.65;15.25;;;22.00;88.20;;;;;;4997739;28;20129;-87
2021/08/31 00:08:27;;;;;;;18.85;15.30;;;22.00;88.30;;;;;;5014135;28;20416;-87
2021/08/31 00:10:53;;;;;;;18.25;14.98;;;22.00;88.30;;;;;;5013980;28;20045;-88
2021/08/31 00:13:19;;;;;;;19.25;14.65;;;22.00;88.20;;;;;;5013945;28;20041;-87
2021/08/31 00:15:45;;;;;;;22.00;16.17;;;22.00;88.20;;;;;;5015247;28;20038;-84
2021/08/31 00:18:11;;;;;;;19.75;14.35;;;22.00;88.00;;;;;;4997459;28;20029;-85
2021/08/31 00:20:37;;;;;;;22.92;16.08;;;22.00;88.00;;;;;;5015004;28;20437;-84
2021/08/31 00:23:03;;;;;;;21.10;15.68;;;22.00;87.90;;;;;;5015178;28;20503;-84
2021/08/31 00:25:31;;;;;;;22.35;15.57;;;22.00;88.00;;;;;;5014157;28;20042;-84
2021/08/31 00:27:57;;;;;;;24.38;15.80;;;22.00;87.90;;;;;;5019513;28;20073;-84
2021/08/31 00:30:23;;;;;;;22.58;15.75;;;22.00;87.90;;;;;;5018571;28;20064;-84
2021/08/31 00:32:49;;;;;;;21.20;15.80;;;21.90;87.90;;;;;;5014792;28;20037;-84
2021/08/31 00:35:14;;;;;;;17.95;14.98;;;21.90;87.90;;;;;;5013484;28;20408;-85
2021/08/31 00:37:41;;;;;;;21.45;15.77;;;21.90;87.90;;;;;;5013254;28;20026;-85
2021/08/31 00:40:07;;;;;;;20.52;15.65;;;21.90;88.10;;;;;;5013429;28;20030;-85
2021/08/31 00:42:33;;;;;;;25.73;16.55;;;21.90;88.10;;;;;;4997112;28;20037;-85
2021/08/31 00:44:59;;;;;;;21.40;16.92;;;21.90;88.00;;;;;;5014554;28;20113;-84
2021/08/31 00:47:26;;;;;;;20.75;15.88;;;21.90;88.00;;;;;;5013396;28;20041;-84
2021/08/31 00:49:52;;;;;;;24.17;15.40;;;21.90;87.90;;;;;;5013479;28;20044;-84
2021/08/31 00:52:18;;;;;;;24.23;17.15;;;21.80;87.90;;;;;;4996916;28;20042;-84
2021/08/31 00:54:45;;;;;;;22.88;16.15;;;21.80;87.90;;;;;;5013093;28;20038;-84
2021/08/31 00:57:13;;;;;;;21.75;15.90;;;21.80;88.00;;;;;;5013126;28;20543;-84
2021/08/31 00:59:39;;;;;;;22.50;16.25;;;21.80;88.00;;;;;;4996695;28;20033;-84
2021/08/31 01:02:05;;;;;;;24.45;17.08;;;21.80;88.40;;;;;;5012942;28;20080;-86
2021/08/31 01:04:32;;;;;;;22.70;16.65;;;21.80;88.10;;;;;;5014363;28;20030;-86
2021/08/31 01:06:59;;;;;;;19.50;16.63;;;21.70;88.00;;;;;;5014073;28;20459;-86
2021/08/31 01:09:26;;;;;;;25.70;18.17;;;21.70;88.10;;;;;;5014218;28;20044;-85
2021/08/31 01:11:53;;;;;;;23.05;16.80;;;21.70;88.20;;;;;;5013145;28;20061;-87
2021/08/31 01:14:20;;;;;;;23.40;16.35;;;21.70;88.20;;;;;;5014506;28;20049;-85
2021/08/31 01:16:47;;;;;;;21.40;16.25;;;21.70;88.30;;;;;;5014212;28;20030;-85
2021/08/31 01:19:14;;;;;;;23.08;15.82;;;21.70;88.20;;;;;;5023626;28;20038;-86
2021/08/31 01:21:40;;;;;;;20.88;16.10;;;21.70;88.10;;;;;;5024849;28;20125;-85
2021/08/31 01:24:06;;;;;;;22.27;16.20;;;21.70;88.10;;;;;;5018974;28;20472;-86
2021/08/31 01:26:32;;;;;;;21.60;16.92;;;21.60;88.10;;;;;;5013737;28;20038;-86
2021/08/31 01:29:03;;;;;;;20.92;16.75;;;21.60;88.00;;;;;;5013861;28;20042;-86
2021/08/31 01:31:29;;;;;;;19.60;16.05;;;21.60;88.10;;;;;;5012619;28;20058;-85
2021/08/31 01:33:55;;;;;;;24.15;17.38;;;21.60;88.10;;;;;;5013908;28;20642;-85
2021/08/31 01:36:24;;;;;;;24.75;16.50;;;21.60;88.20;;;;;;5012554;28;20037;-84
2021/08/31 01:38:52;;;;;;;20.48;16.60;;;21.60;88.20;;;;;;4996247;28;20029;-84
2021/08/31 01:41:18;;;;;;;22.27;17.23;;;21.60;88.20;;;;;;5012580;28;20057;-84
2021/08/31 01:43:44;;;;;;;20.27;16.65;;;21.50;88.30;;;;;;5012360;28;20065;-85
2021/08/31 01:46:11;;;;;;;21.30;16.50;;;21.50;88.30;;;;;;5013428;28;20120;-84
2021/08/31 01:48:37;;;;;;;20.55;15.93;;;21.50;88.30;;;;;;5012366;28;20037;-85
2021/08/31 01:51:04;;;;;;;24.25;16.35;;;21.50;88.30;;;;;;5012780;28;20092;-86
2021/08/31 01:53:30;;;;;;;26.48;17.33;;;21.50;88.20;;;;;;5012541;28;20046;-89
2021/08/31 01:55:55;;;;;;;22.10;16.70;;;21.50;88.10;;;;;;4995883;28;20026;-87
2021/08/31 01:58:21;;;;;;;22.83;15.85;;;21.50;88.00;;;;;;5012238;28;20030;-87
2021/08/31 02:00:47;;;;;;;20.58;17.40;;;21.50;88.00;;;;;;5012443;28;20417;-87
2021/08/31 02:03:13;;;;;;;22.63;17.25;;;21.50;88.00;;;;;;5012375;28;20041;-87
2021/08/31 02:05:39;;;;;;;20.30;15.35;;;21.50;87.90;;;;;;4996008;28;20041;-87
2021/08/31 02:08:05;;;;;;;21.90;16.73;;;21.50;88.00;;;;;;5013632;28;20029;-88
2021/08/31 02:10:32;;;;;;;23.77;16.35;;;21.50;87.80;;;;;;5021424;28;20042;-88
2021/08/31 02:12:58;;;;;;;17.92;15.85;;;21.40;87.80;;;;;;5020387;28;20045;-88
2021/08/31 02:15:24;;;;;;;22.73;16.55;;;21.50;87.80;;;;;;5018685;28;20089;-88
2021/08/31 02:17:50;;;;;;;20.52;15.68;;;21.40;87.90;;;;;;4997555;28;20064;-88
2021/08/31 02:20:17;;;;;;;21.58;15.40;;;21.40;88.10;;;;;;5014384;28;20084;-89
2021/08/31 02:22:42;;;;;;;19.73;14.95;;;21.40;88.00;;;;;;5013515;28;20505;-88
2021/08/31 02:25:10;;;;;;;21.13;15.25;;;21.50;88.00;;;;;;5013469;28;20527;-88
2021/08/31 02:27:36;;;;;;;20.73;15.52;;;21.40;87.90;;;;;;5013541;28;20033;-87
2021/08/31 02:30:04;;;;;;;20.08;15.32;;;21.40;87.80;;;;;;5011971;28;20038;-88
2021/08/31 02:32:31;;;;;;;22.67;16.70;;;21.40;87.90;;;;;;5013339;28;20034;-88
2021/08/31 02:34:58;;;;;;;21.45;15.50;;;21.40;87.90;;;;;;5011858;28;20459;-88
2021/08/31 02:37:23;;;;;;;21.15;15.48;;;21.40;87.90;;;;;;5012065;28;20022;-88
2021/08/31 02:39:49;;;;;;;22.73;16.50;;;21.40;87.80;;;;;;5013028;28;20141;-85
2021/08/31 02:42:16;;;;;;;19.27;15.40;;;21.30;87.80;;;;;;5011797;28;20072;-85
2021/08/31 02:44:42;;;;;;;21.00;15.75;;;21.30;87.80;;;;;;5011980;28;20049;-86
2021/08/31 02:47:08;;;;;;;19.23;14.85;;;21.40;87.80;;;;;;5013475;28;20396;-86
2021/08/31 02:49:33;;;;;;;22.13;15.25;;;21.30;87.80;;;;;;5011873;28;20038;-86
2021/08/31 02:51:59;;;;;;;18.55;14.77;;;21.30;87.80;;;;;;5011712;28;20041;-86
2021/08/31 02:54:25;;;;;;;19.77;15.60;;;21.30;87.90;;;;;;4995385;28;20038;-85
2021/08/31 02:56:51;;;;;;;18.52;14.80;;;21.30;88.20;;;;;;5012971;28;20030;-85
2021/08/31 02:59:17;;;;;;;22.27;16.58;;;21.30;87.90;;;;;;5012120;28;20436;-86
2021/08/31 03:04:22;;;;;;;21.15;15.13;;;21.30;87.90;;;;;;5019802;28;20042;-85
2021/08/31 03:06:49;;;;;;;20.60;14.95;;;21.30;88.00;;;;;;5018155;28;20041;-85
2021/08/31 03:09:15;;;;;;;20.55;15.18;;;21.30;88.00;;;;;;5014629;28;20029;-85
2021/08/31 03:11:40;;;;;;;19.90;15.52;;;21.30;88.00;;;;;;4998433;28;20184;-86
2021/08/31 03:14:06;;;;;;;18.77;14.88;;;21.30;88.00;;;;;;5014951;28;20041;-86
2021/08/31 03:16:32;;;;;;;19.55;14.60;;;21.30;88.10;;;;;;5016485;28;20447;-86
2021/08/31 03:18:58;;;;;;;20.10;15.90;;;21.20;88.10;;;;;;5015050;28;20100;-86
2021/08/31 03:21:24;;;;;;;20.73;15.38;;;21.30;88.20;;;;;;4998942;28;20034;-86
2021/08/31 03:23:50;;;;;;;19.67;15.38;;;21.30;88.10;;;;;;4998788;28;20092;-86
2021/08/31 03:26:16;;;;;;;23.38;14.85;;;21.20;88.10;;;;;;5016235;28;20128;-85
2021/08/31 03:28:42;;;;;;;21.23;14.32;;;21.20;88.00;;;;;;5016569;28;20038;-87
2021/08/31 03:31:08;;;;;;;18.75;14.27;;;21.20;88.00;;;;;;4999035;28;20440;-87
2021/08/31 03:33:34;;;;;;;20.45;14.70;;;21.20;88.10;;;;;;5018283;28;20049;-86
2021/08/31 03:36:00;;;;;;;19.90;15.30;;;21.30;88.20;;;;;;5016039;28;20041;-86
2021/08/31 03:38:26;;;;;;;20.67;15.20;;;21.20;88.00;;;;;;5015448;28;20420;-89
2021/08/31 03:40:52;;;;;;;19.10;14.65;;;21.30;88.00;;;;;;5016133;28;20108;-90
2021/08/31 03:43:17;;;;;;;23.52;15.07;;;21.20;88.00;;;;;;4997149;28;20030;-92
2021/08/31 03:45:45;;;;;;;23.83;15.93;;;21.30;88.20;;;;;;5008513;28;20030;-96
2021/08/31 03:48:11;;;;;;;20.27;15.45;;;21.20;88.10;;;;;;5017275;28;20634;-94
2021/08/31 03:50:36;;;;;;;20.65;15.13;;;21.30;88.10;;;;;;5014938;28;20030;-93
2021/08/31 03:53:02;;;;;;;20.52;14.15;;;21.30;88.00;;;;;;5013296;28;20038;-92
2021/08/31 03:55:29;;;;;;;21.33;15.23;;;21.30;88.00;;;;;;5016491;28;20034;-95
2021/08/31 03:57:55;;;;;;;19.67;15.80;;;21.30;88.00;;;;;;5033470;28;20046;-90
2021/08/31 04:00:21;;;;;;;21.40;15.40;;;21.30;88.00;;;;;;5026943;28;20036;-95
2021/08/31 04:02:46;;;;;;;21.85;14.75;;;21.20;87.80;;;;;;5178157;23;20029;-91
2021/08/31 04:05:12;;;;;;;22.50;15.90;;;21.20;87.90;;;;;;5248162;23;20478;-93
2021/08/31 04:07:38;;;;;;;24.77;15.38;;;21.30;88.00;;;;;;5128334;22;20054;-94
2021/08/31 04:10:05;;;;;;;18.33;14.25;;;21.30;87.90;;;;;;4983243;28;20034;-94
2021/08/31 04:17:48;;;;;;;22.75;15.70;;;21.30;88.00;;;;;;5286576;22;19929;-96
2021/08/31 04:20:15;;;;;;;19.50;14.88;;;21.30;87.90;;;;;;5006675;28;20055;-93
2021/08/31 04:22:41;;;;;;;19.73;14.80;;;21.30;87.80;;;;;;5005965;28;20025;-91
2021/08/31 04:25:07;;;;;;;20.48;14.63;;;21.30;87.70;;;;;;5010773;28;20531;-95
2021/08/31 04:27:33;;;;;;;21.67;15.60;;;21.30;87.80;;;;;;4996978;28;20029;-91
2021/08/31 04:29:59;;;;;;;18.08;14.25;;;21.30;87.80;;;;;;4994443;28;20034;-91
2021/08/31 04:32:25;;;;;;;21.52;14.63;;;21.30;87.70;;;;;;5015135;28;20121;-95
2021/08/31 04:34:55;;;;;;;19.13;14.00;;;21.30;87.70;;;;;;5015292;28;20034;-92
2021/08/31 04:37:21;;;;;;;18.35;14.40;;;21.40;87.60;;;;;;4996961;28;20068;-93
2021/08/31 04:39:47;;;;;;;22.00;14.32;;;21.40;87.30;;;;;;5012539;28;20049;-87
2021/08/31 04:42:13;;;;;;;17.60;14.25;;;21.40;87.20;;;;;;5014894;28;20056;-92
2021/08/31 04:44:39;;;;;;;20.02;14.38;;;21.40;87.00;;;;;;5023271;28;20061;-89
2021/08/31 04:47:05;;;;;;;19.20;14.57;;;21.40;87.00;;;;;;5015091;28;20065;-89
2021/08/31 04:49:31;;;;;;;18.25;13.60;;;21.40;87.10;;;;;;5032701;28;20021;-88
2021/08/31 04:51:57;;;;;;;19.20;14.05;;;21.40;87.10;;;;;;4985311;28;20030;-87
2021/08/31 04:54:22;;;;;;;20.52;13.77;;;21.40;87.00;;;;;;5012632;28;20041;-87
2021/08/31 04:56:48;;;;;;;18.17;14.32;;;21.40;87.00;;;;;;5013955;28;20041;-85
2021/08/31 04:59:14;;;;;;;19.15;14.52;;;21.40;87.00;;;;;;5014082;28;20085;-85
2021/08/31 05:01:40;;;;;;;18.33;14.55;;;21.40;86.90;;;;;;5012956;28;20468;-86
2021/08/31 05:04:06;;;;;;;17.60;14.10;;;21.40;87.00;;;;;;4996505;28;20460;-86
2021/08/31 05:06:32;;;;;;;19.05;14.18;;;21.40;86.90;;;;;;5014361;28;20040;-86
2021/08/31 05:08:58;;;;;;;17.60;13.65;;;21.40;86.90;;;;;;5012944;28;20038;-87
2021/08/31 05:11:24;;;;;;;21.08;15.05;;;21.40;87.40;;;;;;5012397;28;20088;-86
2021/08/31 05:13:50;;;;;;;20.15;14.73;;;21.50;86.80;;;;;;5012094;28;20072;-87
2021/08/31 05:16:18;;;;;;;18.55;14.23;;;21.50;86.70;;;;;;4995548;28;20041;-86
2021/08/31 05:18:44;;;;;;;18.08;14.48;;;21.40;86.70;;;;;;5012490;28;20111;-86
2021/08/31 05:21:10;;;;;;;17.05;13.90;;;21.50;86.80;;;;;;5012166;28;20034;-86
2021/08/31 05:23:36;;;;;;;18.95;14.00;;;21.50;86.70;;;;;;5014118;28;20045;-85
2021/08/31 05:26:03;;;;;;;22.70;14.50;;;21.50;86.50;;;;;;5012199;28;20080;-85
2021/08/31 05:28:29;;;;;;;17.90;14.15;;;21.50;86.50;;;;;;5012191;28;20409;-86
2021/08/31 05:30:55;;;;;;;18.52;14.68;;;21.50;86.40;;;;;;5012813;28;20048;-86
2021/08/31 05:33:21;;;;;;;19.70;14.52;;;21.50;86.30;;;;;;5011758;28;20042;-86
2021/08/31 05:35:47;;;;;;;18.92;14.48;;;21.50;86.40;;;;;;5013213;28;20409;-88
2021/08/31 05:38:13;;;;;;;16.40;13.77;;;21.50;86.30;;;;;;5027289;28;20489;-87
2021/08/31 05:40:39;;;;;;;17.58;14.07;;;21.50;86.20;;;;;;5027714;28;20036;-87
2021/08/31 05:43:04;;;;;;;20.92;14.65;;;21.60;86.10;;;;;;5018382;28;20064;-87
2021/08/31 05:45:32;;;;;;;18.75;13.90;;;21.60;86.00;;;;;;5013264;28;20034;-87
2021/08/31 05:47:58;;;;;;;17.60;13.88;;;21.60;86.00;;;;;;5012318;28;20037;-85
2021/08/31 05:50:25;;;;;;;20.45;14.68;;;21.60;86.10;;;;;;5012181;28;20060;-86
2021/08/31 05:52:51;;;;;;;20.55;13.68;;;21.60;86.10;;;;;;4995376;28;20065;-87
2021/08/31 05:55:17;;;;;;;33.55;14.82;;;21.60;85.90;;;;;;5012264;28;20103;-90
2021/08/31 05:57:43;;;;;;;17.73;13.80;;;21.60;85.80;;;;;;5011572;28;20053;-90
2021/08/31 06:00:11;;;;;;;18.38;15.07;;;21.60;85.70;;;;;;5011965;28;20104;-90
2021/08/31 06:02:42;;;;;;;16.95;13.80;;;21.60;85.80;;;;;;5011698;28;20029;-88
2021/08/31 06:05:08;;;;;;;17.63;13.38;;;21.60;85.70;;;;;;5011689;28;20175;-89
2021/08/31 06:07:35;;;;;;;21.10;14.07;;;21.60;85.70;;;;;;5012914;28;20038;-90
2021/08/31 06:10:03;;;;;;;15.57;13.18;;;21.60;85.60;;;;;;5013097;28;20427;-89
2021/08/31 06:12:29;;;;;;;20.05;14.48;;;21.60;85.50;;;;;;5013083;28;20045;-89
2021/08/31 06:14:55;;;;;;;17.95;14.48;;;21.60;85.50;;;;;;5011432;28;20613;-89
2021/08/31 06:17:22;;;;;;;17.85;13.18;;;21.60;85.40;;;;;;5011287;28;20140;-89
2021/08/31 06:19:51;;;;;;;17.48;14.38;;;21.60;85.30;;;;;;4995163;28;20459;-88
2021/08/31 06:22:18;;;;;;;17.38;13.95;;;21.60;85.30;;;;;;5011611;28;20037;-89
2021/08/31 06:24:45;;;;;;;16.95;14.10;;;21.60;85.10;;;;;;5012705;28;20065;-88
2021/08/31 06:27:12;;;;;;;18.30;13.30;;;21.70;85.20;;;;;;5011753;28;20423;-88
2021/08/31 06:29:38;;;;;;;15.77;13.40;;;21.70;85.10;;;;;;5001127;28;20564;-85
2021/08/31 06:32:04;;;;;;;16.92;14.63;;;21.70;85.00;;;;;;5001775;28;20045;-87
2021/08/31 06:34:30;;;;;;;18.17;13.10;;;21.70;85.50;;;;;;5018005;28;20065;-85
2021/08/31 06:36:56;;;;;;;16.42;13.48;;;21.70;84.70;;;;;;5011203;28;20088;-87
2021/08/31 06:39:22;;;;;;;16.98;13.18;;;21.70;84.60;;;;;;5012580;28;20026;-86
2021/08/31 06:41:48;;;;;;;18.58;14.18;;;21.80;84.60;;;;;;5011277;28;20416;-85
2021/08/31 06:44:14;;;;;;;16.65;13.48;;;21.80;84.60;;;;;;5015722;28;20038;-86
2021/08/31 06:46:40;;;;;;;16.52;13.23;;;21.80;84.50;;;;;;5014763;28;20528;-86
2021/08/31 06:49:06;;;;;;;16.83;13.48;;;21.80;84.40;;;;;;4998791;28;20131;-86
2021/08/31 06:51:32;;;;;;;17.85;14.98;;;21.80;84.50;;;;;;5015017;28;20033;-86
2021/08/31 06:54:00;;;;;;;20.05;13.73;;;21.80;84.50;;;;;;5014965;28;20037;-85
2021/08/31 06:56:26;;;;;;;15.70;13.35;;;21.80;84.50;;;;;;5014920;28;20033;-85
2021/08/31 06:58:52;;;;;;;18.80;13.32;;;21.80;84.60;;;;;;5015854;28;20136;-86
2021/08/31 07:01:18;;;;;;;15.95;13.07;;;21.90;84.80;;;;;;5014849;28;20045;-86
2021/08/31 07:03:44;;;;;;;17.77;14.07;;;21.90;84.70;;;;;;5014757;28;20037;-85
2021/08/31 07:06:09;;;;;;;19.83;14.82;;;22.00;84.50;;;;;;5015495;28;20049;-87
2021/08/31 07:08:35;;;;;;;18.45;14.00;;;22.00;84.10;;;;;;5015850;28;20486;-88
2021/08/31 07:11:01;;;;;;;19.23;13.82;;;22.10;84.10;;;;;;5015390;28;20026;-90
2021/08/31 07:13:27;;;;;;;18.77;14.05;;;22.10;84.00;;;;;;4999736;28;20413;-88
2021/08/31 07:15:53;;;;;;;18.80;14.18;;;22.20;84.00;;;;;;5016052;28;20044;-90
2021/08/31 07:18:19;;;;;;;17.42;14.15;;;22.20;83.80;;;;;;4998015;28;20651;-89
2021/08/31 07:20:45;;;;;;;17.63;13.60;;;22.20;83.50;;;;;;5018894;28;20066;-90
2021/08/31 07:23:14;;;;;;;17.75;14.32;;;22.20;83.50;;;;;;5007068;28;20037;-90
2021/08/31 07:25:43;;;;;;;20.85;15.57;;;22.30;83.40;;;;;;5027988;28;20042;-90
2021/08/31 07:28:10;;;;;;;19.70;15.00;;;22.20;82.90;;;;;;5017308;28;20037;-90
2021/08/31 07:30:37;;;;;;;20.38;14.88;;;22.20;82.70;;;;;;5017558;28;20065;-90
2021/08/31 07:33:05;;;;;;;19.17;14.38;;;22.30;82.90;;;;;;5014232;28;20133;-88
2021/08/31 07:35:32;;;;;;;19.92;13.63;;;22.30;83.20;;;;;;5014670;28;20497;-88
2021/08/31 07:37:58;;;;;;;20.88;15.30;;;22.30;83.30;;;;;;5013077;28;20042;-87
2021/08/31 07:40:24;;;;;;;23.63;14.93;;;22.30;83.00;;;;;;5014243;28;20070;-94
2021/08/31 07:42:52;;;;;;;20.83;15.90;;;22.30;82.70;;;;;;5016022;28;20061;-92
2021/08/31 07:45:19;;;;;;;19.02;15.60;;;22.40;82.60;;;;;;4998076;28;20037;-83
2021/08/31 07:47:45;;;;;;;21.50;14.65;;;22.40;82.50;;;;;;5015141;28;20030;-83
2021/08/31 07:50:11;;;;;;;18.50;15.77;;;22.40;82.30;;;;;;5013859;28;20034;-83
2021/08/31 07:52:37;;;;;;;19.45;15.65;;;22.30;82.30;;;;;;5013678;28;20061;-83
2021/08/31 07:55:05;;;;;;;18.35;15.43;;;22.40;82.40;;;;;;5014160;28;20435;-83
2021/08/31 07:57:31;;;;;;;18.45;15.77;;;22.40;82.50;;;;;;5013371;28;20116;-83
2021/08/31 07:59:58;;;;;;;24.45;16.13;;;22.40;82.40;;;;;;5013759;28;20124;-83
2021/08/31 08:02:24;;;;;;;19.58;15.65;;;22.40;82.10;;;;;;5013598;28;20034;-82
2021/08/31 08:04:52;;;;;;;20.90;14.23;;;22.50;82.20;;;;;;5013690;28;20042;-85
2021/08/31 08:07:18;;;;;;;18.13;14.20;;;22.50;82.70;;;;;;5014927;28;20042;-85
2021/08/31 08:09:44;;;;;;;18.52;14.45;;;22.70;83.20;;;;;;5013138;28;20044;-82
2021/08/31 08:12:12;;;;;;;17.52;14.80;;;22.70;83.30;;;;;;5015907;28;20057;-83
2021/08/31 08:14:37;;;;;;;19.98;14.13;;;22.90;83.20;;;;;;5018150;28;20495;-82
2021/08/31 08:17:03;;;;;;;18.63;13.82;;;23.00;83.00;;;;;;5021311;28;20050;-83
2021/08/31 08:19:29;;;;;;;21.80;14.80;;;23.00;82.80;;;;;;5015106;28;20042;-84
2021/08/31 08:21:55;;;;;;;17.17;13.77;;;23.10;82.70;;;;;;5014790;28;20021;-85
2021/08/31 08:24:21;;;;;;;19.65;14.50;;;23.20;82.70;;;;;;5014482;28;20036;-83
2021/08/31 08:26:48;;;;;;;20.10;13.68;;;23.30;82.60;;;;;;4996611;28;20052;-82
2021/08/31 08:29:14;;;;;;;18.15;14.38;;;23.40;82.50;;;;;;4996695;28;20073;-84
2021/08/31 08:31:44;;;;;;;22.15;15.35;;;23.50;82.30;;;;;;5014172;28;20053;-83
2021/08/31 08:34:11;;;;;;;19.42;14.75;;;23.60;82.00;;;;;;5014187;28;20416;-83
2021/08/31 08:36:37;;;;;;;18.38;14.90;;;23.60;81.60;;;;;;5013996;28;20034;-83
2021/08/31 08:39:03;;;;;;;21.52;15.63;;;23.70;81.60;;;;;;5013994;28;20032;-83
2021/08/31 08:41:29;;;;;;;17.83;14.18;;;23.80;81.40;;;;;;5012844;28;20118;-82
2021/08/31 08:43:59;;;;;;;19.25;14.23;;;23.80;81.30;;;;;;5012710;28;20459;-86
2021/08/31 08:46:26;;;;;;;20.52;13.73;;;23.80;81.20;;;;;;5012746;28;20033;-85
2021/08/31 08:48:52;;;;;;;18.92;14.45;;;23.90;81.40;;;;;;5014028;28;20033;-85
2021/08/31 08:51:20;;;;;;;19.30;15.27;;;23.90;80.70;;;;;;5013696;28;20554;-85
2021/08/31 08:53:47;;;;;;;18.92;16.63;;;23.80;80.00;;;;;;5013728;28;20046;-86
2021/08/31 08:56:13;;;;;;;22.25;15.18;;;23.80;79.80;;;;;;5012984;28;20033;-85
2021/08/31 08:58:39;;;;;;;18.83;14.07;;;23.90;80.00;;;;;;5013188;28;20412;-86
2021/08/31 09:01:11;;;;;;;15.77;12.75;;;23.90;80.40;;;;;;5013225;28;20033;-85
2021/08/31 09:03:52;;;;;;;20.15;14.35;;;23.90;80.70;;;;;;5016314;28;20038;-85
2021/08/31 09:06:20;;;;;;;17.55;14.57;;;23.90;79.90;;;;;;5026160;28;20065;-84
2021/08/31 09:08:55;;;;;;;20.90;15.80;;;23.80;79.40;;;;;;5024977;28;20029;-84
2021/08/31 09:11:31;;;;;;;17.38;14.05;;;23.80;79.40;;;;;;5015834;28;20092;-87
2021/08/31 09:14:19;;;;;;;17.77;14.20;;;23.90;79.40;;;;;;5018248;28;20045;-89
2021/08/31 09:16:56;;;;;;;20.55;15.30;;;23.90;79.00;;;;;;5018018;28;20085;-89
2021/08/31 09:19:42;;;;;;;18.20;13.38;;;23.90;78.20;;;;;;5014863;28;20040;-90
2021/08/31 09:22:11;;;;;;;;;;;23.90;78.50;;;;;;5019273;28;20069;-87
2021/08/31 09:24:37;;;;;;;16.38;12.93;;;24.00;79.20;;;;;;5015975;28;19920;-87
2021/08/31 09:27:03;;;;;;;16.50;13.00;;;24.00;78.70;;;;;;5016968;28;20065;-84
2021/08/31 09:29:39;;;;;;;18.05;14.30;;;24.00;79.10;;;;;;5015443;28;20030;-85
2021/08/31 09:32:11;;;;;;;19.05;13.18;;;24.00;78.50;;;;;;5016002;28;20037;-85
2021/08/31 09:34:40;;;;;;;16.90;14.50;;;24.00;78.30;;;;;;5015589;28;20406;-85
2021/08/31 09:37:28;;;;;;;24.52;14.00;;;24.00;77.90;;;;;;5014641;28;20045;-86
2021/08/31 09:40:06;;;;;;;17.38;14.20;;;24.00;78.00;;;;;;5013109;28;20034;-85
2021/08/31 09:42:33;;;;;;;16.90;13.57;;;24.00;77.80;;;;;;5013771;28;20030;-87
2021/08/31 09:45:06;;;;;;;21.48;14.88;;;24.00;78.70;;;;;;5011790;28;20072;-85
2021/08/31 09:47:36;;;;;;;19.92;16.83;;;24.10;78.30;;;;;;5011440;28;20033;-86
2021/08/31 09:50:06;;;;;;;21.50;16.25;;;24.00;78.20;;;;;;5011787;28;20052;-85
2021/08/31 09:52:33;;;;;;;15.95;14.25;;;24.00;77.80;;;;;;5011160;28;20041;-85
2021/08/31 09:54:59;;;;;;;20.50;16.15;;;24.10;78.30;;;;;;5012510;28;20471;-85
2021/08/31 09:57:31;;;;;;;17.25;13.80;;;24.10;78.50;;;;;;5016111;28;20026;-84
2021/08/31 10:00:03;;;;;;;17.23;14.95;;;24.10;78.60;;;;;;4998659;28;20030;-86
2021/08/31 10:02:30;;;;;;;22.17;15.18;;;24.10;78.50;;;;;;5012982;28;20061;-84
2021/08/31 10:04:57;;;;;;;19.15;13.93;;;24.10;78.50;;;;;;5012131;28;20099;-82
2021/08/31 10:07:24;;;;;;;17.98;14.07;;;24.10;79.00;;;;;;5012124;28;20042;-83
2021/08/31 10:09:52;;;;;;;18.75;14.35;;;24.20;79.60;;;;;;5012646;28;20041;-84
2021/08/31 10:12:20;;;;;;;17.67;13.85;;;24.20;80.00;;;;;;5012719;28;20096;-83
2021/08/31 10:14:50;;;;;;;20.98;14.77;;;24.20;80.00;;;;;;5011109;28;20041;-85
2021/08/31 10:17:19;;;;;;;18.13;13.70;;;24.30;80.20;;;;;;5012112;28;20184;-79
2021/08/31 10:19:47;;;;;;;18.38;13.95;;;24.30;80.20;;;;;;5015915;28;20061;-82
2021/08/31 10:22:16;;;;;;;18.13;14.25;;;24.30;80.40;;;;;;5015989;28;20457;-80
2021/08/31 10:24:46;;;;;;;16.35;13.73;;;24.30;80.40;;;;;;5016280;28;20038;-78
2021/08/31 10:27:31;;;;;;;15.88;13.20;;;24.30;80.20;;;;;;4998307;28;20516;-81
2021/08/31 10:30:19;;;;;;;22.40;14.38;;;24.40;80.30;;;;;;5015911;28;20033;-82
2021/08/31 10:32:47;;;;;;;18.13;13.45;;;24.40;79.70;;;;;;5014752;28;20041;-81
2021/08/31 10:35:39;;;;;;;26.67;14.88;;;24.40;80.00;;;;;;5015693;28;20510;-80
2021/08/31 10:38:10;;;;;;;26.95;14.50;;;24.40;79.50;;;;;;5006358;28;20455;-79
2021/08/31 10:40:41;;;;;;;18.52;13.10;;;24.40;78.50;;;;;;5014528;28;20065;-79
2021/08/31 10:43:09;;;;;;;19.33;13.38;;;24.40;78.50;;;;;;5014773;28;20037;-79
2021/08/31 10:45:35;;;;;;;17.52;13.48;;;24.40;78.70;;;;;;5014609;28;20041;-79
2021/08/31 10:48:24;;;;;;;21.95;13.65;;;24.40;78.30;;;;;;5015640;28;20045;-81
2021/08/31 10:50:58;;;;;;;17.30;13.02;;;24.50;77.60;;;;;;5014154;28;20413;-81
2021/08/31 10:53:43;;;;;;;17.15;12.63;;;24.50;78.00;;;;;;5015071;28;20046;-80
2021/08/31 10:56:24;;;;;;;23.88;13.30;;;24.50;77.80;;;;;;5015238;28;20041;-79
2021/08/31 10:59:00;;;;;;;22.50;13.45;;;24.50;77.70;;;;;;5015027;28;20055;-79
2021/08/31 11:01:34;;;;;;;21.52;12.98;;;24.50;77.60;;;;;;5013924;28;20033;-78
2021/08/31 11:04:00;;;;;;;17.60;12.85;;;24.50;76.50;;;;;;5013494;28;20053;-78
2021/08/31 11:06:35;;;;;;;18.52;12.40;;;24.60;76.30;;;;;;5013510;28;20034;-79
2021/08/31 11:09:11;;;;;;;19.67;12.93;;;24.60;76.70;;;;;;5014896;28;20504;-78
2021/08/31 11:11:41;;;;;;;15.98;12.20;;;24.60;76.80;;;;;;5013550;28;20424;-78
2021/08/31 11:14:08;;;;;;;17.25;12.48;;;24.60;76.40;;;;;;5014645;28;20076;-78
2021/08/31 11:16:38;;;;;;;17.50;13.00;;;24.60;76.50;;;;;;5014520;28;20053;-78
2021/08/31 11:19:06;;;;;;;16.98;12.35;;;24.60;76.60;;;;;;5014931;28;20386;-78
2021/08/31 11:21:45;;;;;;;17.02;12.05;;;24.60;76.80;;;;;;5014456;28;20029;-78
2021/08/31 11:24:11;;;;;;;17.90;11.90;;;24.60;76.40;;;;;;5013165;28;20038;-77
2021/08/31 11:26:37;;;;;;;14.10;12.00;;;24.60;76.50;;;;;;5013128;28;20129;-78
2021/08/31 11:29:11;;;;;;;17.20;11.45;;;24.60;76.60;;;;;;5013348;28;20061;-78
2021/08/31 11:31:38;;;;;;;15.85;10.93;;;24.60;75.70;;;;;;5014299;28;20587;-78
2021/08/31 11:34:10;;;;;;;13.88;11.32;;;24.60;75.90;;;;;;5014295;28;20042;-78
2021/08/31 11:36:38;;;;;;;14.75;10.88;;;24.60;76.10;;;;;;5013171;28;20502;-78
2021/08/31 11:39:06;;;;;;;16.08;11.90;;;24.60;75.90;;;;;;5014278;28;20022;-78
2021/08/31 11:41:40;;;;;;;15.50;12.20;;;24.60;76.00;;;;;;5014241;28;20038;-78
2021/08/31 11:44:21;;;;;;;14.88;10.50;;;24.60;75.90;;;;;;5014321;28;20420;-79
2021/08/31 11:46:53;;;;;;;13.82;11.43;;;24.60;75.90;;;;;;5014239;28;20049;-78
2021/08/31 11:49:20;;;;;;;16.27;11.07;;;24.70;76.10;;;;;;4996603;28;20040;-78
2021/08/31 11:51:51;;;;;;;13.38;11.50;;;24.70;76.10;;;;;;5014095;28;20038;-78
2021/08/31 11:54:17;;;;;;;16.05;10.85;;;24.70;76.20;;;;;;5013830;28;20568;-78
2021/08/31 11:56:50;;;;;;;13.80;11.13;;;24.70;76.00;;;;;;5013873;28;20030;-78
2021/08/31 11:59:35;;;;;;;18.55;10.77;;;24.70;75.90;;;;;;5012553;28;20042;-78
2021/08/31 12:02:14;;;;;;;12.70;11.05;;;24.70;75.90;;;;;;5013818;28;20030;-78
2021/08/31 12:04:44;;;;;;;14.57;10.40;;;24.70;75.50;;;;;;5013772;28;20048;-78
2021/08/31 12:07:13;;;;;;;12.80;10.98;;;24.70;75.80;;;;;;5013649;28;20033;-78
2021/08/31 12:09:44;;;;;;;16.05;11.48;;;24.70;75.40;;;;;;5013786;28;20038;-78
2021/08/31 12:12:11;;;;;;;17.50;11.18;;;24.80;75.50;;;;;;5013706;28;20038;-78
2021/08/31 12:14:40;;;;;;;14.68;10.90;;;24.80;75.50;;;;;;5013463;28;20034;-78
2021/08/31 12:17:08;;;;;;;15.95;11.65;;;24.80;75.70;;;;;;5013433;28;20062;-78
2021/08/31 12:19:35;;;;;;;16.98;11.50;;;24.80;75.50;;;;;;5013536;28;20131;-78
2021/08/31 12:22:03;;;;;;;13.30;11.80;;;24.80;75.40;;;;;;5013469;28;20030;-78
2021/08/31 12:24:29;;;;;;;17.40;11.43;;;24.80;75.60;;;;;;5013470;28;20034;-78
2021/08/31 12:27:07;;;;;;;13.77;11.50;;;24.80;75.90;;;;;;5012227;28;20559;-78
2021/08/31 12:29:50;;;;;;;15.20;11.65;;;24.80;75.90;;;;;;5013385;28;20524;-78
2021/08/31 12:32:29;;;;;;;17.80;11.23;;;24.80;75.90;;;;;;5013383;28;20042;-78
2021/08/31 12:34:57;;;;;;;14.35;11.50;;;24.80;75.60;;;;;;5013190;28;20045;-79
2021/08/31 12:37:24;;;;;;;15.13;11.75;;;24.80;75.60;;;;;;5012070;28;20493;-80
2021/08/31 12:40:17;;;;;;;15.77;11.60;;;24.80;75.50;;;;;;5013123;28;20048;-78